sensor_id;sensor_type;location;lat;lon;timestamp;pressure;altitude;pressure_sealevel;temperature;humidity
50854;BME280;44154;45.506;-122.806;2023-02-02T00:00:15;101090.91;;;23.30;27.29
50854;BME280;44154;45.506;-122.806;2023-02-02T00:02:41;101070.47;;;23.20;27.76
50854;BME280;44154;45.506;-122.806;2023-02-02T00:05:08;101086.25;;;23.30;27.62
50854;BME280;44154;45.506;-122.806;2023-02-02T00:07:34;101086.84;;;23.32;27.57
50854;BME280;44154;45.506;-122.806;2023-02-02T00:10:00;101090.97;;;23.35;27.70
50854;BME280;44154;45.506;-122.806;2023-02-02T00:12:26;101091.59;;;23.37;27.82
50854;BME280;44154;45.506;-122.806;2023-02-02T00:14:52;101099.53;;;23.38;27.88
50854;BME280;44154;45.506;-122.806;2023-02-02T00:17:18;101096.34;;;23.42;27.96
50854;BME280;44154;45.506;-122.806;2023-02-02T00:19:44;101097.75;;;23.44;27.95
50854;BME280;44154;45.506;-122.806;2023-02-02T00:22:11;101094.19;;;23.44;27.98
50854;BME280;44154;45.506;-122.806;2023-02-02T00:24:37;101092.28;;;23.44;28.08
50854;BME280;44154;45.506;-122.806;2023-02-02T00:27:03;101099.28;;;23.52;28.07
50854;BME280;44154;45.506;-122.806;2023-02-02T00:29:30;101096.31;;;23.53;28.17
50854;BME280;44154;45.506;-122.806;2023-02-02T00:31:57;101095.47;;;23.53;28.25
50854;BME280;44154;45.506;-122.806;2023-02-02T00:34:23;101076.97;;;23.43;28.26
50854;BME280;44154;45.506;-122.806;2023-02-02T00:36:51;101077.22;;;23.42;28.25
50854;BME280;44154;45.506;-122.806;2023-02-02T00:39:20;101091.22;;;23.45;28.32
50854;BME280;44154;45.506;-122.806;2023-02-02T00:41:47;101088.97;;;23.42;28.30
50854;BME280;44154;45.506;-122.806;2023-02-02T00:44:13;101098.25;;;23.41;28.24
50854;BME280;44154;45.506;-122.806;2023-02-02T00:46:58;101089.44;;;23.39;28.35
50854;BME280;44154;45.506;-122.806;2023-02-02T00:49:24;101085.28;;;23.36;28.38
50854;BME280;44154;45.506;-122.806;2023-02-02T00:51:50;101084.22;;;23.37;28.25
50854;BME280;44154;45.506;-122.806;2023-02-02T00:54:16;101080.78;;;23.30;28.29
50854;BME280;44154;45.506;-122.806;2023-02-02T00:56:43;101082.78;;;23.35;28.49
50854;BME280;44154;45.506;-122.806;2023-02-02T00:59:09;101079.59;;;23.26;28.35
50854;BME280;44154;45.506;-122.806;2023-02-02T01:01:35;101074.75;;;23.16;28.67
50854;BME280;44154;45.506;-122.806;2023-02-02T01:04:01;101070.00;;;23.12;28.45
50854;BME280;44154;45.506;-122.806;2023-02-02T01:06:28;101068.78;;;23.08;28.76
50854;BME280;44154;45.506;-122.806;2023-02-02T01:08:54;101081.78;;;23.12;28.78
50854;BME280;44154;45.506;-122.806;2023-02-02T01:11:20;101090.41;;;23.09;28.73
50854;BME280;44154;45.506;-122.806;2023-02-02T01:13:46;101095.88;;;23.09;28.78
50854;BME280;44154;45.506;-122.806;2023-02-02T01:16:12;101093.13;;;23.09;28.72
50854;BME280;44154;45.506;-122.806;2023-02-02T01:18:39;101076.63;;;23.04;28.92
50854;BME280;44154;45.506;-122.806;2023-02-02T01:21:07;101091.03;;;23.11;28.96
50854;BME280;44154;45.506;-122.806;2023-02-02T01:23:34;101073.34;;;23.14;28.87
50854;BME280;44154;45.506;-122.806;2023-02-02T01:26:02;101083.28;;;23.32;28.99
50854;BME280;44154;45.506;-122.806;2023-02-02T01:28:29;101085.41;;;23.42;29.11
50854;BME280;44154;45.506;-122.806;2023-02-02T01:30:56;101085.88;;;23.50;28.85
50854;BME280;44154;45.506;-122.806;2023-02-02T01:33:23;101088.34;;;23.52;28.86
50854;BME280;44154;45.506;-122.806;2023-02-02T01:35:52;101083.00;;;23.57;28.89
50854;BME280;44154;45.506;-122.806;2023-02-02T01:38:21;101091.16;;;23.69;28.78
50854;BME280;44154;45.506;-122.806;2023-02-02T01:40:53;101091.03;;;23.87;28.71
50854;BME280;44154;45.506;-122.806;2023-02-02T01:45:52;101110.16;;;24.16;28.46
50854;BME280;44154;45.506;-122.806;2023-02-02T01:48:32;101101.56;;;24.24;28.51
50854;BME280;44154;45.506;-122.806;2023-02-02T01:51:04;101087.78;;;24.19;28.27
50854;BME280;44154;45.506;-122.806;2023-02-02T01:53:32;101065.06;;;24.02;28.34
50854;BME280;44154;45.506;-122.806;2023-02-02T01:56:00;101108.84;;;24.36;28.31
50854;BME280;44154;45.506;-122.806;2023-02-02T01:58:34;101101.16;;;24.33;28.18
50854;BME280;44154;45.506;-122.806;2023-02-02T02:01:02;101120.84;;;24.47;27.89
50854;BME280;44154;45.506;-122.806;2023-02-02T02:03:31;101112.38;;;24.48;28.02
50854;BME280;44154;45.506;-122.806;2023-02-02T02:06:02;101104.91;;;24.44;27.67
50854;BME280;44154;45.506;-122.806;2023-02-02T02:11:03;101113.19;;;24.49;27.72
50854;BME280;44154;45.506;-122.806;2023-02-02T02:13:30;101094.72;;;24.39;28.01
50854;BME280;44154;45.506;-122.806;2023-02-02T02:33:26;101128.00;;;25.16;28.28
50854;BME280;44154;45.506;-122.806;2023-02-02T02:36:10;101121.19;;;25.18;28.33
50854;BME280;44154;45.506;-122.806;2023-02-02T02:38:47;101129.19;;;25.03;27.55
50854;BME280;44154;45.506;-122.806;2023-02-02T02:41:20;101135.81;;;24.90;27.60
50854;BME280;44154;45.506;-122.806;2023-02-02T02:43:55;101132.41;;;24.83;28.04
50854;BME280;44154;45.506;-122.806;2023-02-02T02:46:24;101134.75;;;24.74;28.36
50854;BME280;44154;45.506;-122.806;2023-02-02T02:48:50;101143.09;;;24.67;28.47
50854;BME280;44154;45.506;-122.806;2023-02-02T02:51:48;101145.28;;;24.65;28.56
50854;BME280;44154;45.506;-122.806;2023-02-02T02:54:19;101151.25;;;24.62;28.71
50854;BME280;44154;45.506;-122.806;2023-02-02T03:01:58;101150.19;;;24.51;28.83
50854;BME280;44154;45.506;-122.806;2023-02-02T03:04:38;101148.19;;;24.47;28.70
50854;BME280;44154;45.506;-122.806;2023-02-02T03:07:23;101154.41;;;24.42;28.92
50854;BME280;44154;45.506;-122.806;2023-02-02T03:09:51;101156.78;;;24.38;28.79
50854;BME280;44154;45.506;-122.806;2023-02-02T03:12:19;101142.00;;;24.22;28.76
50854;BME280;44154;45.506;-122.806;2023-02-02T03:14:46;101147.56;;;24.28;28.81
50854;BME280;44154;45.506;-122.806;2023-02-02T03:17:12;101148.06;;;24.24;28.94
50854;BME280;44154;45.506;-122.806;2023-02-02T03:19:38;101119.94;;;24.12;28.87
50854;BME280;44154;45.506;-122.806;2023-02-02T03:22:04;101135.34;;;24.18;29.42
50854;BME280;44154;45.506;-122.806;2023-02-02T03:24:30;101138.50;;;24.10;29.76
50854;BME280;44154;45.506;-122.806;2023-02-02T03:26:56;101131.16;;;23.99;30.07
50854;BME280;44154;45.506;-122.806;2023-02-02T03:29:22;101135.78;;;23.98;30.18
50854;BME280;44154;45.506;-122.806;2023-02-02T03:31:49;101136.63;;;23.99;30.22
50854;BME280;44154;45.506;-122.806;2023-02-02T03:34:15;101127.34;;;24.00;30.38
50854;BME280;44154;45.506;-122.806;2023-02-02T03:36:41;101134.72;;;23.99;30.50
50854;BME280;44154;45.506;-122.806;2023-02-02T03:39:07;101133.41;;;24.02;30.41
50854;BME280;44154;45.506;-122.806;2023-02-02T03:41:34;101134.47;;;24.01;30.61
50854;BME280;44154;45.506;-122.806;2023-02-02T03:44:00;101145.28;;;24.07;30.87
50854;BME280;44154;45.506;-122.806;2023-02-02T03:46:26;101149.91;;;24.07;30.02
50854;BME280;44154;45.506;-122.806;2023-02-02T03:48:52;101141.59;;;24.02;30.59
50854;BME280;44154;45.506;-122.806;2023-02-02T03:51:18;101143.41;;;23.96;31.35
50854;BME280;44154;45.506;-122.806;2023-02-02T03:53:44;101139.75;;;23.90;31.59
50854;BME280;44154;45.506;-122.806;2023-02-02T03:56:12;101127.50;;;23.81;31.01
50854;BME280;44154;45.506;-122.806;2023-02-02T03:58:38;101143.03;;;23.93;30.95
50854;BME280;44154;45.506;-122.806;2023-02-02T04:01:07;101131.97;;;23.99;30.94
50854;BME280;44154;45.506;-122.806;2023-02-02T04:03:33;101128.03;;;24.07;30.87
50854;BME280;44154;45.506;-122.806;2023-02-02T04:05:59;101133.59;;;24.12;30.67
50854;BME280;44154;45.506;-122.806;2023-02-02T04:08:26;101132.44;;;24.08;30.85
50854;BME280;44154;45.506;-122.806;2023-02-02T04:10:53;101136.00;;;24.09;30.74
50854;BME280;44154;45.506;-122.806;2023-02-02T04:13:19;101132.19;;;24.10;30.79
50854;BME280;44154;45.506;-122.806;2023-02-02T04:15:45;101142.97;;;24.16;30.69
50854;BME280;44154;45.506;-122.806;2023-02-02T04:18:11;101147.47;;;24.22;30.71
50854;BME280;44154;45.506;-122.806;2023-02-02T04:20:37;101149.72;;;24.25;30.44
50854;BME280;44154;45.506;-122.806;2023-02-02T04:23:04;101158.03;;;24.31;30.51
50854;BME280;44154;45.506;-122.806;2023-02-02T04:25:30;101155.78;;;24.28;30.45
50854;BME280;44154;45.506;-122.806;2023-02-02T04:27:56;101149.81;;;24.31;30.59
50854;BME280;44154;45.506;-122.806;2023-02-02T04:30:25;101151.94;;;24.29;30.57
50854;BME280;44154;45.506;-122.806;2023-02-02T04:32:51;101150.31;;;24.28;30.78
50854;BME280;44154;45.506;-122.806;2023-02-02T04:35:17;101153.28;;;24.26;30.61
50854;BME280;44154;45.506;-122.806;2023-02-02T04:37:44;101159.09;;;24.30;30.47
50854;BME280;44154;45.506;-122.806;2023-02-02T04:40:10;101154.78;;;24.34;30.55
50854;BME280;44154;45.506;-122.806;2023-02-02T04:42:37;101166.91;;;24.38;30.05
50854;BME280;44154;45.506;-122.806;2023-02-02T04:45:03;101153.13;;;24.33;30.27
50854;BME280;44154;45.506;-122.806;2023-02-02T04:47:29;101162.75;;;24.35;30.44
50854;BME280;44154;45.506;-122.806;2023-02-02T04:49:55;101165.84;;;24.39;30.35
50854;BME280;44154;45.506;-122.806;2023-02-02T04:52:21;101169.16;;;24.41;30.04
50854;BME280;44154;45.506;-122.806;2023-02-02T04:54:48;101154.16;;;24.44;30.12
50854;BME280;44154;45.506;-122.806;2023-02-02T04:57:14;101156.03;;;24.43;29.69
50854;BME280;44154;45.506;-122.806;2023-02-02T04:59:40;101152.84;;;24.46;29.75
50854;BME280;44154;45.506;-122.806;2023-02-02T05:02:06;101158.78;;;24.43;29.81
50854;BME280;44154;45.506;-122.806;2023-02-02T05:04:32;101153.22;;;24.38;30.01
50854;BME280;44154;45.506;-122.806;2023-02-02T05:06:59;101169.91;;;24.36;30.04
50854;BME280;44154;45.506;-122.806;2023-02-02T05:09:25;101156.97;;;24.32;30.10
50854;BME280;44154;45.506;-122.806;2023-02-02T05:11:51;101150.38;;;24.33;30.07
50854;BME280;44154;45.506;-122.806;2023-02-02T05:14:17;101149.00;;;24.30;30.24
50854;BME280;44154;45.506;-122.806;2023-02-02T05:16:45;101153.63;;;24.30;30.21
50854;BME280;44154;45.506;-122.806;2023-02-02T05:19:11;101142.19;;;24.33;29.92
50854;BME280;44154;45.506;-122.806;2023-02-02T05:21:37;101140.06;;;24.35;29.74
50854;BME280;44154;45.506;-122.806;2023-02-02T05:24:04;101130.19;;;24.34;29.43
50854;BME280;44154;45.506;-122.806;2023-02-02T05:26:30;101136.72;;;24.33;29.44
50854;BME280;44154;45.506;-122.806;2023-02-02T05:28:56;101136.97;;;24.31;29.42
50854;BME280;44154;45.506;-122.806;2023-02-02T05:31:22;101124.78;;;24.22;29.15
50854;BME280;44154;45.506;-122.806;2023-02-02T05:33:48;101141.00;;;24.29;29.25
50854;BME280;44154;45.506;-122.806;2023-02-02T05:36:14;101146.47;;;24.29;29.30
50854;BME280;44154;45.506;-122.806;2023-02-02T05:38:41;101135.72;;;24.22;29.43
50854;BME280;44154;45.506;-122.806;2023-02-02T05:41:07;101152.44;;;24.25;29.78
50854;BME280;44154;45.506;-122.806;2023-02-02T05:43:33;101154.59;;;24.23;29.78
50854;BME280;44154;45.506;-122.806;2023-02-02T05:45:59;101155.91;;;24.21;29.65
50854;BME280;44154;45.506;-122.806;2023-02-02T05:48:25;101147.97;;;24.19;29.70
50854;BME280;44154;45.506;-122.806;2023-02-02T05:51:17;101158.22;;;24.12;29.67
50854;BME280;44154;45.506;-122.806;2023-02-02T05:53:45;101170.63;;;24.03;29.91
50854;BME280;44154;45.506;-122.806;2023-02-02T05:56:12;101154.84;;;23.93;29.54
50854;BME280;44154;45.506;-122.806;2023-02-02T05:58:40;101165.28;;;23.96;29.55
50854;BME280;44154;45.506;-122.806;2023-02-02T06:01:07;101154.31;;;24.08;29.31
50854;BME280;44154;45.506;-122.806;2023-02-02T06:03:34;101159.94;;;24.30;29.17
50854;BME280;44154;45.506;-122.806;2023-02-02T06:06:00;101159.63;;;24.44;28.95
50854;BME280;44154;45.506;-122.806;2023-02-02T06:08:26;101155.84;;;24.45;28.81
50854;BME280;44154;45.506;-122.806;2023-02-02T06:10:53;101156.28;;;24.41;28.84
50854;BME280;44154;45.506;-122.806;2023-02-02T06:13:19;101164.91;;;24.33;28.90
50854;BME280;44154;45.506;-122.806;2023-02-02T06:15:45;101171.59;;;24.25;28.71
50854;BME280;44154;45.506;-122.806;2023-02-02T06:18:11;101161.06;;;24.17;28.76
50854;BME280;44154;45.506;-122.806;2023-02-02T06:20:37;101165.84;;;24.10;28.74
50854;BME280;44154;45.506;-122.806;2023-02-02T06:23:04;101171.44;;;24.03;28.84
50854;BME280;44154;45.506;-122.806;2023-02-02T06:25:30;101177.03;;;23.97;28.95
50854;BME280;44154;45.506;-122.806;2023-02-02T06:27:57;101176.34;;;23.89;29.03
50854;BME280;44154;45.506;-122.806;2023-02-02T06:30:24;101178.72;;;23.86;29.15
50854;BME280;44154;45.506;-122.806;2023-02-02T06:32:51;101175.28;;;23.90;29.06
50854;BME280;44154;45.506;-122.806;2023-02-02T06:35:17;101187.56;;;24.17;28.95
50854;BME280;44154;45.506;-122.806;2023-02-02T06:37:44;101199.25;;;24.41;28.61
50854;BME280;44154;45.506;-122.806;2023-02-02T06:40:11;101195.13;;;24.55;28.33
50854;BME280;44154;45.506;-122.806;2023-02-02T06:42:38;101191.34;;;24.56;28.10
50854;BME280;44154;45.506;-122.806;2023-02-02T06:45:05;101197.78;;;24.50;28.00
50854;BME280;44154;45.506;-122.806;2023-02-02T06:47:32;101194.03;;;24.39;28.13
50854;BME280;44154;45.506;-122.806;2023-02-02T06:49:58;101195.72;;;24.29;28.31
50854;BME280;44154;45.506;-122.806;2023-02-02T06:52:24;101195.19;;;24.15;28.61
50854;BME280;44154;45.506;-122.806;2023-02-02T06:54:50;101191.88;;;24.01;28.65
50854;BME280;44154;45.506;-122.806;2023-02-02T06:57:17;101187.88;;;23.92;29.02
50854;BME280;44154;45.506;-122.806;2023-02-02T06:59:43;101195.34;;;23.84;29.02
50854;BME280;44154;45.506;-122.806;2023-02-02T07:02:12;101198.44;;;23.76;29.19
50854;BME280;44154;45.506;-122.806;2023-02-02T07:04:39;101204.72;;;23.77;29.08
50854;BME280;44154;45.506;-122.806;2023-02-02T07:07:05;101201.19;;;23.76;28.90
50854;BME280;44154;45.506;-122.806;2023-02-02T07:09:32;101185.03;;;23.63;29.03
50854;BME280;44154;45.506;-122.806;2023-02-02T07:11:59;101199.28;;;23.65;28.87
50854;BME280;44154;45.506;-122.806;2023-02-02T07:14:25;101200.34;;;23.64;28.91
50854;BME280;44154;45.506;-122.806;2023-02-02T07:16:52;101202.97;;;23.59;28.77
50854;BME280;44154;45.506;-122.806;2023-02-02T07:19:18;101197.63;;;23.52;29.04
50854;BME280;44154;45.506;-122.806;2023-02-02T07:21:44;101199.66;;;23.45;28.90
50854;BME280;44154;45.506;-122.806;2023-02-02T07:24:10;101198.94;;;23.37;29.63
50854;BME280;44154;45.506;-122.806;2023-02-02T07:26:36;101198.47;;;23.29;31.11
50854;BME280;44154;45.506;-122.806;2023-02-02T07:29:04;101187.31;;;23.30;30.42
50854;BME280;44154;45.506;-122.806;2023-02-02T07:31:30;101183.50;;;23.31;30.06
50854;BME280;44154;45.506;-122.806;2023-02-02T07:33:56;101182.69;;;23.31;29.56
50854;BME280;44154;45.506;-122.806;2023-02-02T07:36:23;101167.84;;;23.27;29.55
50854;BME280;44154;45.506;-122.806;2023-02-02T07:38:51;101180.53;;;23.45;29.85
50854;BME280;44154;45.506;-122.806;2023-02-02T07:41:23;101190.16;;;23.47;29.64
50854;BME280;44154;45.506;-122.806;2023-02-02T07:43:49;101184.69;;;23.47;29.85
50854;BME280;44154;45.506;-122.806;2023-02-02T07:46:16;101180.06;;;23.48;30.10
50854;BME280;44154;45.506;-122.806;2023-02-02T07:48:43;101181.47;;;23.50;30.06
50854;BME280;44154;45.506;-122.806;2023-02-02T07:51:12;101171.84;;;23.48;29.89
50854;BME280;44154;45.506;-122.806;2023-02-02T07:53:42;101164.63;;;23.42;29.88
50854;BME280;44154;45.506;-122.806;2023-02-02T07:56:14;101167.72;;;23.57;31.70
50854;BME280;44154;45.506;-122.806;2023-02-02T07:58:41;101165.41;;;23.89;31.91
50854;BME280;44154;45.506;-122.806;2023-02-02T08:01:09;101176.97;;;24.20;31.71
50854;BME280;44154;45.506;-122.806;2023-02-02T08:03:36;101176.50;;;24.23;31.95
50854;BME280;44154;45.506;-122.806;2023-02-02T08:06:09;101187.31;;;24.18;31.60
50854;BME280;44154;45.506;-122.806;2023-02-02T08:08:36;101176.53;;;24.00;31.35
50854;BME280;44154;45.506;-122.806;2023-02-02T08:11:02;101177.78;;;23.80;31.48
50854;BME280;44154;45.506;-122.806;2023-02-02T08:13:28;101183.94;;;23.64;31.79
50854;BME280;44154;45.506;-122.806;2023-02-02T08:15:57;101183.63;;;23.48;31.70
50854;BME280;44154;45.506;-122.806;2023-02-02T08:18:23;101175.41;;;23.36;32.93
50854;BME280;44154;45.506;-122.806;2023-02-02T08:20:50;101167.22;;;23.25;31.88
50854;BME280;44154;45.506;-122.806;2023-02-02T08:23:17;101158.66;;;23.09;32.04
50854;BME280;44154;45.506;-122.806;2023-02-02T08:25:51;101167.06;;;23.08;31.62
50854;BME280;44154;45.506;-122.806;2023-02-02T08:28:18;101162.06;;;22.93;32.17
50854;BME280;44154;45.506;-122.806;2023-02-02T08:30:44;101172.69;;;23.13;31.74
50854;BME280;44154;45.506;-122.806;2023-02-02T08:33:11;101164.38;;;23.55;31.29
50854;BME280;44154;45.506;-122.806;2023-02-02T08:35:41;101170.63;;;24.03;30.18
50854;BME280;44154;45.506;-122.806;2023-02-02T08:38:08;101167.34;;;24.18;29.98
50854;BME280;44154;45.506;-122.806;2023-02-02T08:40:34;101168.09;;;24.13;30.13
50854;BME280;44154;45.506;-122.806;2023-02-02T08:43:01;101166.34;;;23.95;30.21
50854;BME280;44154;45.506;-122.806;2023-02-02T08:45:29;101161.97;;;23.70;30.26
50854;BME280;44154;45.506;-122.806;2023-02-02T08:47:55;101166.03;;;23.56;30.28
50854;BME280;44154;45.506;-122.806;2023-02-02T08:50:21;101165.69;;;23.41;30.58
50854;BME280;44154;45.506;-122.806;2023-02-02T08:52:48;101156.06;;;23.26;30.93
50854;BME280;44154;45.506;-122.806;2023-02-02T08:55:14;101145.00;;;23.09;31.68
50854;BME280;44154;45.506;-122.806;2023-02-02T08:57:40;101154.63;;;23.12;32.30
50854;BME280;44154;45.506;-122.806;2023-02-02T09:00:07;101156.03;;;23.02;31.46
50854;BME280;44154;45.506;-122.806;2023-02-02T09:02:33;101151.16;;;23.04;31.11
50854;BME280;44154;45.506;-122.806;2023-02-02T09:04:59;101154.88;;;23.46;30.78
50854;BME280;44154;45.506;-122.806;2023-02-02T09:07:25;101150.53;;;23.85;30.09
50854;BME280;44154;45.506;-122.806;2023-02-02T09:09:51;101163.09;;;24.10;29.88
50854;BME280;44154;45.506;-122.806;2023-02-02T09:12:20;101164.50;;;24.13;30.24
50854;BME280;44154;45.506;-122.806;2023-02-02T09:14:46;101166.59;;;23.94;30.51
50854;BME280;44154;45.506;-122.806;2023-02-02T09:17:12;101159.25;;;23.70;30.81
50854;BME280;44154;45.506;-122.806;2023-02-02T09:19:39;101166.38;;;23.48;31.29
50854;BME280;44154;45.506;-122.806;2023-02-02T09:22:05;101162.72;;;23.30;31.52
50854;BME280;44154;45.506;-122.806;2023-02-02T09:24:31;101156.53;;;23.11;31.79
50854;BME280;44154;45.506;-122.806;2023-02-02T09:26:57;101165.66;;;23.05;31.58
50854;BME280;44154;45.506;-122.806;2023-02-02T09:29:23;101155.66;;;22.99;30.85
50854;BME280;44154;45.506;-122.806;2023-02-02T09:31:49;101154.34;;;22.90;30.79
50854;BME280;44154;45.506;-122.806;2023-02-02T09:34:15;101161.53;;;23.26;30.26
50854;BME280;44154;45.506;-122.806;2023-02-02T09:36:42;101172.63;;;23.84;29.54
50854;BME280;44154;45.506;-122.806;2023-02-02T09:39:12;101171.22;;;24.34;28.88
50854;BME280;44154;45.506;-122.806;2023-02-02T09:41:47;101168.66;;;24.44;28.82
50854;BME280;44154;45.506;-122.806;2023-02-02T09:47:48;101181.22;;;23.87;29.81
50854;BME280;44154;45.506;-122.806;2023-02-02T09:50:15;101174.81;;;23.58;29.90
50854;BME280;44154;45.506;-122.806;2023-02-02T09:52:52;101179.81;;;23.37;29.70
50854;BME280;44154;45.506;-122.806;2023-02-02T09:55:32;101185.16;;;23.20;30.10
50854;BME280;44154;45.506;-122.806;2023-02-02T09:58:19;101185.75;;;23.11;30.46
50854;BME280;44154;45.506;-122.806;2023-02-02T10:00:54;101192.97;;;23.05;30.48
50854;BME280;44154;45.506;-122.806;2023-02-02T10:03:28;101200.19;;;22.99;30.15
50854;BME280;44154;45.506;-122.806;2023-02-02T10:08:44;101190.75;;;23.61;29.85
50854;BME280;44154;45.506;-122.806;2023-02-02T10:13:51;101189.84;;;24.08;28.30
50854;BME280;44154;45.506;-122.806;2023-02-02T10:16:20;101197.16;;;23.90;28.13
50854;BME280;44154;45.506;-122.806;2023-02-02T10:19:00;101158.69;;;23.45;28.43
50854;BME280;44154;45.506;-122.806;2023-02-02T10:21:56;101195.03;;;23.45;28.68
50854;BME280;44154;45.506;-122.806;2023-02-02T10:24:27;101190.84;;;23.19;28.98
50854;BME280;44154;45.506;-122.806;2023-02-02T10:27:07;101204.97;;;23.16;29.11
50854;BME280;44154;45.506;-122.806;2023-02-02T10:40:09;101188.25;;;23.36;31.98
50854;BME280;44154;45.506;-122.806;2023-02-02T10:45:49;101184.91;;;23.58;30.04
50854;BME280;44154;45.506;-122.806;2023-02-02T10:48:19;101177.81;;;23.45;30.44
50854;BME280;44154;45.506;-122.806;2023-02-02T10:50:49;101180.66;;;23.26;30.82
50854;BME280;44154;45.506;-122.806;2023-02-02T10:53:16;101185.75;;;23.11;30.86
50854;BME280;44154;45.506;-122.806;2023-02-02T10:56:12;101195.88;;;22.92;31.53
50854;BME280;44154;45.506;-122.806;2023-02-02T10:58:57;101189.81;;;22.78;31.59
50854;BME280;44154;45.506;-122.806;2023-02-02T11:01:26;101193.34;;;23.20;32.03
50854;BME280;44154;45.506;-122.806;2023-02-02T11:03:52;101187.88;;;23.56;31.33
50854;BME280;44154;45.506;-122.806;2023-02-02T11:06:38;101185.47;;;23.83;31.14
50854;BME280;44154;45.506;-122.806;2023-02-02T11:09:30;101189.66;;;23.86;30.79
50854;BME280;44154;45.506;-122.806;2023-02-02T11:12:04;101199.91;;;23.67;30.83
50854;BME280;44154;45.506;-122.806;2023-02-02T11:14:48;101199.41;;;23.46;30.82
50854;BME280;44154;45.506;-122.806;2023-02-02T11:17:24;101209.88;;;23.26;31.00
50854;BME280;44154;45.506;-122.806;2023-02-02T11:19:51;101215.16;;;23.09;31.34
50854;BME280;44154;45.506;-122.806;2023-02-02T11:22:33;101208.47;;;22.93;31.56
50854;BME280;44154;45.506;-122.806;2023-02-02T11:25:05;101212.41;;;22.97;31.63
50854;BME280;44154;45.506;-122.806;2023-02-02T11:27:38;101203.81;;;23.35;31.22
50854;BME280;44154;45.506;-122.806;2023-02-02T11:30:26;101202.72;;;23.72;30.39
50854;BME280;44154;45.506;-122.806;2023-02-02T11:32:55;101201.56;;;23.92;31.10
50854;BME280;44154;45.506;-122.806;2023-02-02T11:35:23;101196.41;;;23.83;31.26
50854;BME280;44154;45.506;-122.806;2023-02-02T11:38:13;101197.53;;;23.59;31.44
50854;BME280;44154;45.506;-122.806;2023-02-02T11:40:45;101205.47;;;23.36;30.88
50854;BME280;44154;45.506;-122.806;2023-02-02T11:43:33;101199.91;;;23.19;31.03
50854;BME280;44154;45.506;-122.806;2023-02-02T11:46:19;101209.81;;;23.02;31.29
50854;BME280;44154;45.506;-122.806;2023-02-02T11:49:01;101217.38;;;22.88;31.26
50854;BME280;44154;45.506;-122.806;2023-02-02T11:51:29;101215.19;;;23.20;31.10
50854;BME280;44154;45.506;-122.806;2023-02-02T11:56:40;101203.69;;;23.89;30.37
50854;BME280;44154;45.506;-122.806;2023-02-02T11:59:44;101165.44;;;23.66;30.07
50854;BME280;44154;45.506;-122.806;2023-02-02T12:02:26;101229.22;;;23.71;30.46
50854;BME280;44154;45.506;-122.806;2023-02-02T12:07:41;101231.13;;;23.24;30.83
50854;BME280;44154;45.506;-122.806;2023-02-02T12:26:38;101232.91;;;23.77;29.87
50854;BME280;44154;45.506;-122.806;2023-02-02T12:32:03;101238.47;;;23.35;30.53
50854;BME280;44154;45.506;-122.806;2023-02-02T12:43:20;101225.91;;;23.58;30.09
50854;BME280;44154;45.506;-122.806;2023-02-02T12:57:44;101231.13;;;23.24;30.06
50854;BME280;44154;45.506;-122.806;2023-02-02T13:00:26;101237.22;;;23.07;30.13
50854;BME280;44154;45.506;-122.806;2023-02-02T13:03:33;101230.69;;;22.96;30.38
50854;BME280;44154;45.506;-122.806;2023-02-02T13:09:12;101231.50;;;23.86;29.20
50854;BME280;44154;45.506;-122.806;2023-02-02T13:11:48;101221.34;;;24.11;28.89
50854;BME280;44154;45.506;-122.806;2023-02-02T13:14:21;101242.97;;;24.12;28.80
50854;BME280;44154;45.506;-122.806;2023-02-02T13:16:56;101236.13;;;23.86;29.09
50854;BME280;44154;45.506;-122.806;2023-02-02T13:19:37;101231.72;;;23.49;29.31
50854;BME280;44154;45.506;-122.806;2023-02-02T13:22:09;101250.84;;;23.37;29.70
50854;BME280;44154;45.506;-122.806;2023-02-02T13:24:41;101250.34;;;23.17;29.90
50854;BME280;44154;45.506;-122.806;2023-02-02T13:27:14;101253.50;;;23.02;30.10
50854;BME280;44154;45.506;-122.806;2023-02-02T13:29:56;101242.56;;;23.02;30.26
50854;BME280;44154;45.506;-122.806;2023-02-02T13:32:32;101238.13;;;23.19;30.00
50854;BME280;44154;45.506;-122.806;2023-02-02T13:35:04;101243.72;;;23.60;29.44
50854;BME280;44154;45.506;-122.806;2023-02-02T13:37:41;101250.59;;;23.98;28.76
50854;BME280;44154;45.506;-122.806;2023-02-02T14:00:27;101239.31;;;23.71;29.17
50854;BME280;44154;45.506;-122.806;2023-02-02T14:06:11;101249.41;;;24.18;28.22
50854;BME280;44154;45.506;-122.806;2023-02-02T14:09:04;101249.66;;;24.04;28.57
50854;BME280;44154;45.506;-122.806;2023-02-02T14:11:31;101247.91;;;23.86;28.78
50854;BME280;44154;45.506;-122.806;2023-02-02T14:16:50;101256.78;;;23.46;29.03
50854;BME280;44154;45.506;-122.806;2023-02-02T14:19:45;101255.81;;;23.41;29.70
50854;BME280;44154;45.506;-122.806;2023-02-02T14:45:40;101243.50;;;23.62;29.08
50854;BME280;44154;45.506;-122.806;2023-02-02T14:53:13;101257.06;;;25.19;27.13
50854;BME280;44154;45.506;-122.806;2023-02-02T15:03:54;101259.63;;;24.51;27.25
50854;BME280;44154;45.506;-122.806;2023-02-02T15:06:34;101261.97;;;24.31;27.77
50854;BME280;44154;45.506;-122.806;2023-02-02T15:17:44;101271.41;;;23.64;28.59
50854;BME280;44154;45.506;-122.806;2023-02-02T15:25:49;101256.19;;;24.85;27.29
50854;BME280;44154;45.506;-122.806;2023-02-02T15:34:04;101269.03;;;24.15;28.08